sensor_id;sensor_type;location;lat;lon;timestamp;P1;durP1;ratioP1;P2;durP2;ratioP2
1721;SDS011;858;53.190;8.596;2022-11-06T00:00:19;14.30;;;8.40;;
1721;SDS011;858;53.190;8.596;2022-11-06T00:02:46;12.87;;;8.90;;
1721;SDS011;858;53.190;8.596;2022-11-06T00:05:12;9.73;;;8.73;;
1721;SDS011;858;53.190;8.596;2022-11-06T00:07:57;10.60;;;8.38;;
1721;SDS011;858;53.190;8.596;2022-11-06T00:10:23;12.05;;;8.00;;
1721;SDS011;858;53.190;8.596;2022-11-06T00:12:50;12.27;;;7.90;;
1721;SDS011;858;53.190;8.596;2022-11-06T00:15:17;9.43;;;7.32;;
1721;SDS011;858;53.190;8.596;2022-11-06T00:17:47;9.75;;;7.10;;
1721;SDS011;858;53.190;8.596;2022-11-06T00:20:13;11.40;;;8.13;;
1721;SDS011;858;53.190;8.596;2022-11-06T00:22:39;10.20;;;7.60;;
1721;SDS011;858;53.190;8.596;2022-11-06T00:25:08;13.52;;;8.00;;
1721;SDS011;858;53.190;8.596;2022-11-06T00:27:34;13.43;;;8.00;;
1721;SDS011;858;53.190;8.596;2022-11-06T00:30:01;10.23;;;8.23;;
1721;SDS011;858;53.190;8.596;2022-11-06T00:32:27;10.80;;;7.38;;
1721;SDS011;858;53.190;8.596;2022-11-06T00:34:54;11.55;;;7.88;;
1721;SDS011;858;53.190;8.596;2022-11-06T00:37:20;10.30;;;7.07;;
1721;SDS011;858;53.190;8.596;2022-11-06T00:39:46;10.43;;;7.40;;
1721;SDS011;858;53.190;8.596;2022-11-06T00:42:14;10.98;;;7.85;;
1721;SDS011;858;53.190;8.596;2022-11-06T00:44:40;10.32;;;8.10;;
1721;SDS011;858;53.190;8.596;2022-11-06T00:47:07;12.40;;;7.40;;
1721;SDS011;858;53.190;8.596;2022-11-06T00:49:33;14.10;;;7.45;;
1721;SDS011;858;53.190;8.596;2022-11-06T00:52:00;12.87;;;7.80;;
1721;SDS011;858;53.190;8.596;2022-11-06T00:54:26;10.82;;;6.97;;
1721;SDS011;858;53.190;8.596;2022-11-06T00:56:52;12.83;;;7.60;;
1721;SDS011;858;53.190;8.596;2022-11-06T00:59:20;12.43;;;7.63;;
1721;SDS011;858;53.190;8.596;2022-11-06T01:01:47;11.25;;;7.18;;
1721;SDS011;858;53.190;8.596;2022-11-06T01:04:14;10.68;;;7.35;;
1721;SDS011;858;53.190;8.596;2022-11-06T01:06:41;9.77;;;7.47;;
1721;SDS011;858;53.190;8.596;2022-11-06T01:09:08;12.02;;;7.50;;
1721;SDS011;858;53.190;8.596;2022-11-06T01:11:36;15.13;;;7.55;;
1721;SDS011;858;53.190;8.596;2022-11-06T01:14:04;12.45;;;7.13;;
1721;SDS011;858;53.190;8.596;2022-11-06T01:16:32;9.70;;;7.35;;
1721;SDS011;858;53.190;8.596;2022-11-06T01:18:59;10.77;;;7.45;;
1721;SDS011;858;53.190;8.596;2022-11-06T01:21:27;12.50;;;7.75;;
1721;SDS011;858;53.190;8.596;2022-11-06T01:23:54;15.50;;;7.80;;
1721;SDS011;858;53.190;8.596;2022-11-06T01:26:21;10.52;;;7.75;;
1721;SDS011;858;53.190;8.596;2022-11-06T01:28:47;10.30;;;6.57;;
1721;SDS011;858;53.190;8.596;2022-11-06T01:31:15;10.52;;;7.68;;
1721;SDS011;858;53.190;8.596;2022-11-06T01:33:44;11.55;;;7.00;;
1721;SDS011;858;53.190;8.596;2022-11-06T01:36:12;9.25;;;7.20;;
1721;SDS011;858;53.190;8.596;2022-11-06T01:38:39;12.93;;;7.68;;
1721;SDS011;858;53.190;8.596;2022-11-06T01:41:05;11.98;;;7.13;;
1721;SDS011;858;53.190;8.596;2022-11-06T01:43:46;12.65;;;8.27;;
1721;SDS011;858;53.190;8.596;2022-11-06T01:46:13;8.77;;;7.00;;
1721;SDS011;858;53.190;8.596;2022-11-06T01:48:40;8.95;;;7.00;;
1721;SDS011;858;53.190;8.596;2022-11-06T01:51:09;12.75;;;7.40;;
1721;SDS011;858;53.190;8.596;2022-11-06T01:53:36;12.07;;;7.43;;
1721;SDS011;858;53.190;8.596;2022-11-06T01:56:04;9.50;;;7.05;;
1721;SDS011;858;53.190;8.596;2022-11-06T01:58:32;11.07;;;7.28;;
1721;SDS011;858;53.190;8.596;2022-11-06T02:00:59;10.40;;;6.97;;
1721;SDS011;858;53.190;8.596;2022-11-06T02:03:26;11.02;;;7.10;;
1721;SDS011;858;53.190;8.596;2022-11-06T02:05:53;11.45;;;7.15;;
1721;SDS011;858;53.190;8.596;2022-11-06T02:08:22;10.18;;;7.57;;
1721;SDS011;858;53.190;8.596;2022-11-06T02:10:50;11.80;;;7.18;;
1721;SDS011;858;53.190;8.596;2022-11-06T02:13:20;8.25;;;6.50;;
1721;SDS011;858;53.190;8.596;2022-11-06T02:15:50;11.45;;;7.28;;
1721;SDS011;858;53.190;8.596;2022-11-06T02:18:43;13.27;;;8.00;;
1721;SDS011;858;53.190;8.596;2022-11-06T02:24:01;9.52;;;6.90;;
1721;SDS011;858;53.190;8.596;2022-11-06T02:26:43;10.70;;;7.40;;
1721;SDS011;858;53.190;8.596;2022-11-06T02:29:11;11.33;;;7.50;;
1721;SDS011;858;53.190;8.596;2022-11-06T02:31:40;11.10;;;7.60;;
1721;SDS011;858;53.190;8.596;2022-11-06T02:34:10;10.65;;;6.90;;
1721;SDS011;858;53.190;8.596;2022-11-06T02:36:44;10.48;;;6.78;;
1721;SDS011;858;53.190;8.596;2022-11-06T02:39:13;11.83;;;6.90;;
1721;SDS011;858;53.190;8.596;2022-11-06T02:41:43;10.55;;;7.05;;
1721;SDS011;858;53.190;8.596;2022-11-06T02:44:11;12.68;;;7.43;;
1721;SDS011;858;53.190;8.596;2022-11-06T02:46:39;14.23;;;7.03;;
1721;SDS011;858;53.190;8.596;2022-11-06T02:49:07;12.10;;;7.35;;
1721;SDS011;858;53.190;8.596;2022-11-06T02:51:37;10.10;;;7.15;;
1721;SDS011;858;53.190;8.596;2022-11-06T02:54:04;10.43;;;7.40;;
1721;SDS011;858;53.190;8.596;2022-11-06T02:56:33;8.70;;;7.18;;
1721;SDS011;858;53.190;8.596;2022-11-06T02:59:03;11.32;;;7.43;;
1721;SDS011;858;53.190;8.596;2022-11-06T03:01:32;11.45;;;7.63;;
1721;SDS011;858;53.190;8.596;2022-11-06T03:04:00;11.98;;;7.20;;
1721;SDS011;858;53.190;8.596;2022-11-06T03:06:29;12.60;;;6.90;;
1721;SDS011;858;53.190;8.596;2022-11-06T03:08:57;11.93;;;7.80;;
1721;SDS011;858;53.190;8.596;2022-11-06T03:11:28;9.00;;;6.80;;
1721;SDS011;858;53.190;8.596;2022-11-06T03:13:55;11.68;;;7.35;;
1721;SDS011;858;53.190;8.596;2022-11-06T03:16:32;10.13;;;7.20;;
1721;SDS011;858;53.190;8.596;2022-11-06T03:19:03;11.32;;;6.80;;
1721;SDS011;858;53.190;8.596;2022-11-06T03:21:33;11.15;;;7.28;;
1721;SDS011;858;53.190;8.596;2022-11-06T03:24:03;10.52;;;6.40;;
1721;SDS011;858;53.190;8.596;2022-11-06T03:26:34;10.55;;;6.75;;
1721;SDS011;858;53.190;8.596;2022-11-06T03:29:04;10.98;;;6.70;;
1721;SDS011;858;53.190;8.596;2022-11-06T03:31:35;11.10;;;6.93;;
1721;SDS011;858;53.190;8.596;2022-11-06T03:34:02;10.50;;;6.43;;
1721;SDS011;858;53.190;8.596;2022-11-06T03:36:31;12.68;;;6.78;;
1721;SDS011;858;53.190;8.596;2022-11-06T03:38:59;11.07;;;6.63;;
1721;SDS011;858;53.190;8.596;2022-11-06T03:41:28;8.02;;;6.40;;
1721;SDS011;858;53.190;8.596;2022-11-06T03:43:57;11.25;;;6.63;;
1721;SDS011;858;53.190;8.596;2022-11-06T03:46:25;15.02;;;6.90;;
1721;SDS011;858;53.190;8.596;2022-11-06T03:48:56;11.50;;;6.50;;
1721;SDS011;858;53.190;8.596;2022-11-06T03:51:25;9.75;;;6.20;;
1721;SDS011;858;53.190;8.596;2022-11-06T03:53:57;8.60;;;6.60;;
1721;SDS011;858;53.190;8.596;2022-11-06T03:56:24;8.10;;;6.50;;
1721;SDS011;858;53.190;8.596;2022-11-06T03:58:53;11.43;;;7.05;;
1721;SDS011;858;53.190;8.596;2022-11-06T04:01:21;11.65;;;6.50;;
1721;SDS011;858;53.190;8.596;2022-11-06T04:03:50;8.77;;;6.30;;
1721;SDS011;858;53.190;8.596;2022-11-06T04:06:21;11.50;;;6.55;;
1721;SDS011;858;53.190;8.596;2022-11-06T04:08:49;10.13;;;6.80;;
1721;SDS011;858;53.190;8.596;2022-11-06T04:11:35;9.85;;;6.45;;
1721;SDS011;858;53.190;8.596;2022-11-06T04:14:23;13.27;;;7.15;;
1721;SDS011;858;53.190;8.596;2022-11-06T04:16:51;11.25;;;6.80;;
1721;SDS011;858;53.190;8.596;2022-11-06T04:19:19;12.57;;;6.15;;
1721;SDS011;858;53.190;8.596;2022-11-06T04:21:51;12.65;;;6.28;;
1721;SDS011;858;53.190;8.596;2022-11-06T04:24:24;10.40;;;6.40;;
1721;SDS011;858;53.190;8.596;2022-11-06T04:27:12;8.82;;;6.70;;
1721;SDS011;858;53.190;8.596;2022-11-06T04:29:42;7.80;;;6.10;;
1721;SDS011;858;53.190;8.596;2022-11-06T04:32:16;9.75;;;6.40;;
1721;SDS011;858;53.190;8.596;2022-11-06T04:34:44;11.98;;;6.78;;
1721;SDS011;858;53.190;8.596;2022-11-06T04:37:15;10.70;;;6.53;;
1721;SDS011;858;53.190;8.596;2022-11-06T04:39:47;11.43;;;6.30;;
1721;SDS011;858;53.190;8.596;2022-11-06T04:42:18;10.13;;;6.60;;
1721;SDS011;858;53.190;8.596;2022-11-06T04:44:48;8.32;;;6.40;;
1721;SDS011;858;53.190;8.596;2022-11-06T04:47:16;10.60;;;7.40;;
1721;SDS011;858;53.190;8.596;2022-11-06T04:49:43;10.82;;;7.57;;
1721;SDS011;858;53.190;8.596;2022-11-06T04:52:10;10.30;;;6.70;;
1721;SDS011;858;53.190;8.596;2022-11-06T04:54:40;12.18;;;7.00;;
1721;SDS011;858;53.190;8.596;2022-11-06T04:57:06;10.38;;;7.38;;
1721;SDS011;858;53.190;8.596;2022-11-06T04:59:33;10.27;;;7.17;;
1721;SDS011;858;53.190;8.596;2022-11-06T05:02:00;9.98;;;7.30;;
1721;SDS011;858;53.190;8.596;2022-11-06T05:04:26;11.82;;;7.30;;
1721;SDS011;858;53.190;8.596;2022-11-06T05:06:55;9.25;;;6.68;;
1721;SDS011;858;53.190;8.596;2022-11-06T05:09:21;12.63;;;6.53;;
1721;SDS011;858;53.190;8.596;2022-11-06T05:11:51;9.75;;;6.00;;
1721;SDS011;858;53.190;8.596;2022-11-06T05:14:17;10.00;;;6.30;;
1721;SDS011;858;53.190;8.596;2022-11-06T05:16:43;11.38;;;6.60;;
1721;SDS011;858;53.190;8.596;2022-11-06T05:19:10;11.25;;;6.47;;
1721;SDS011;858;53.190;8.596;2022-11-06T05:21:36;12.57;;;7.22;;
1721;SDS011;858;53.190;8.596;2022-11-06T05:24:20;11.60;;;5.78;;
1721;SDS011;858;53.190;8.596;2022-11-06T05:26:47;8.05;;;6.13;;
1721;SDS011;858;53.190;8.596;2022-11-06T05:29:15;10.10;;;6.50;;
1721;SDS011;858;53.190;8.596;2022-11-06T05:31:41;10.10;;;5.60;;
1721;SDS011;858;53.190;8.596;2022-11-06T05:34:07;10.48;;;6.30;;
1721;SDS011;858;53.190;8.596;2022-11-06T05:36:34;8.93;;;6.43;;
1721;SDS011;858;53.190;8.596;2022-11-06T05:39:00;10.55;;;6.90;;
1721;SDS011;858;53.190;8.596;2022-11-06T05:41:27;13.48;;;6.50;;
1721;SDS011;858;53.190;8.596;2022-11-06T05:43:53;8.68;;;6.05;;
1721;SDS011;858;53.190;8.596;2022-11-06T05:46:21;10.27;;;5.85;;
1721;SDS011;858;53.190;8.596;2022-11-06T05:48:47;10.80;;;6.38;;
1721;SDS011;858;53.190;8.596;2022-11-06T05:51:15;10.65;;;6.20;;
1721;SDS011;858;53.190;8.596;2022-11-06T05:53:42;11.93;;;6.20;;
1721;SDS011;858;53.190;8.596;2022-11-06T05:56:08;9.67;;;6.30;;
1721;SDS011;858;53.190;8.596;2022-11-06T05:58:35;12.30;;;6.00;;
1721;SDS011;858;53.190;8.596;2022-11-06T06:01:02;9.90;;;5.95;;
1721;SDS011;858;53.190;8.596;2022-11-06T06:03:29;10.60;;;6.40;;
1721;SDS011;858;53.190;8.596;2022-11-06T06:05:56;10.88;;;6.60;;
1721;SDS011;858;53.190;8.596;2022-11-06T06:08:22;11.20;;;6.40;;
1721;SDS011;858;53.190;8.596;2022-11-06T06:10:48;9.77;;;6.35;;
1721;SDS011;858;53.190;8.596;2022-11-06T06:13:15;12.90;;;7.10;;
1721;SDS011;858;53.190;8.596;2022-11-06T06:15:41;11.02;;;6.85;;
1721;SDS011;858;53.190;8.596;2022-11-06T06:18:08;11.45;;;6.32;;
1721;SDS011;858;53.190;8.596;2022-11-06T06:20:36;10.32;;;6.55;;
1721;SDS011;858;53.190;8.596;2022-11-06T06:23:04;10.10;;;7.30;;
1721;SDS011;858;53.190;8.596;2022-11-06T06:25:31;12.40;;;6.43;;
1721;SDS011;858;53.190;8.596;2022-11-06T06:27:57;13.07;;;6.78;;
1721;SDS011;858;53.190;8.596;2022-11-06T06:30:26;10.88;;;6.93;;
1721;SDS011;858;53.190;8.596;2022-11-06T06:32:53;10.10;;;6.60;;
1721;SDS011;858;53.190;8.596;2022-11-06T06:35:20;11.02;;;6.45;;
1721;SDS011;858;53.190;8.596;2022-11-06T06:37:52;9.55;;;6.70;;
1721;SDS011;858;53.190;8.596;2022-11-06T06:40:18;9.75;;;5.82;;
1721;SDS011;858;53.190;8.596;2022-11-06T06:42:45;12.15;;;6.25;;
1721;SDS011;858;53.190;8.596;2022-11-06T06:45:11;10.13;;;6.50;;
1721;SDS011;858;53.190;8.596;2022-11-06T06:47:38;9.35;;;5.95;;
1721;SDS011;858;53.190;8.596;2022-11-06T06:50:05;10.67;;;6.10;;
1721;SDS011;858;53.190;8.596;2022-11-06T06:52:32;9.20;;;6.20;;
1721;SDS011;858;53.190;8.596;2022-11-06T06:54:59;9.80;;;6.18;;
1721;SDS011;858;53.190;8.596;2022-11-06T06:57:26;9.20;;;6.00;;
1721;SDS011;858;53.190;8.596;2022-11-06T06:59:52;10.38;;;5.68;;
1721;SDS011;858;53.190;8.596;2022-11-06T07:02:19;11.27;;;5.40;;
1721;SDS011;858;53.190;8.596;2022-11-06T07:04:45;8.52;;;5.70;;
1721;SDS011;858;53.190;8.596;2022-11-06T07:07:12;12.55;;;5.10;;
1721;SDS011;858;53.190;8.596;2022-11-06T07:09:38;11.43;;;5.33;;
1721;SDS011;858;53.190;8.596;2022-11-06T07:12:07;13.27;;;5.05;;
1721;SDS011;858;53.190;8.596;2022-11-06T07:14:34;6.15;;;4.53;;
1721;SDS011;858;53.190;8.596;2022-11-06T07:17:00;7.00;;;5.10;;
1721;SDS011;858;53.190;8.596;2022-11-06T07:19:27;9.60;;;5.10;;
1721;SDS011;858;53.190;8.596;2022-11-06T07:21:54;11.35;;;5.00;;
1721;SDS011;858;53.190;8.596;2022-11-06T07:24:21;8.35;;;4.78;;
1721;SDS011;858;53.190;8.596;2022-11-06T07:26:48;8.10;;;4.90;;
1721;SDS011;858;53.190;8.596;2022-11-06T07:29:16;11.18;;;5.40;;
1721;SDS011;858;53.190;8.596;2022-11-06T07:31:43;8.50;;;4.70;;
1721;SDS011;858;53.190;8.596;2022-11-06T07:34:09;6.28;;;4.82;;
1721;SDS011;858;53.190;8.596;2022-11-06T07:36:35;10.67;;;4.97;;
1721;SDS011;858;53.190;8.596;2022-11-06T07:39:02;6.10;;;4.82;;
1721;SDS011;858;53.190;8.596;2022-11-06T07:41:29;7.65;;;4.68;;
1721;SDS011;858;53.190;8.596;2022-11-06T07:43:55;10.20;;;4.73;;
1721;SDS011;858;53.190;8.596;2022-11-06T07:46:23;9.10;;;4.60;;
1721;SDS011;858;53.190;8.596;2022-11-06T07:48:50;11.80;;;5.30;;
1721;SDS011;858;53.190;8.596;2022-11-06T07:51:19;9.75;;;4.60;;
1721;SDS011;858;53.190;8.596;2022-11-06T07:53:45;6.77;;;4.20;;
1721;SDS011;858;53.190;8.596;2022-11-06T07:56:13;10.60;;;4.90;;
1721;SDS011;858;53.190;8.596;2022-11-06T07:58:39;7.95;;;4.63;;
1721;SDS011;858;53.190;8.596;2022-11-06T08:01:10;6.65;;;4.30;;
1721;SDS011;858;53.190;8.596;2022-11-06T08:03:39;9.25;;;4.43;;
1721;SDS011;858;53.190;8.596;2022-11-06T08:06:05;10.30;;;3.90;;
1721;SDS011;858;53.190;8.596;2022-11-06T08:08:32;10.45;;;4.32;;
1721;SDS011;858;53.190;8.596;2022-11-06T08:11:00;6.90;;;4.32;;
1721;SDS011;858;53.190;8.596;2022-11-06T08:13:27;8.27;;;3.85;;
1721;SDS011;858;53.190;8.596;2022-11-06T08:15:53;9.45;;;4.93;;
1721;SDS011;858;53.190;8.596;2022-11-06T08:18:19;6.18;;;3.78;;
1721;SDS011;858;53.190;8.596;2022-11-06T08:20:47;10.82;;;4.80;;
1721;SDS011;858;53.190;8.596;2022-11-06T08:23:14;8.02;;;5.40;;
1721;SDS011;858;53.190;8.596;2022-11-06T08:25:40;10.73;;;6.03;;
1721;SDS011;858;53.190;8.596;2022-11-06T08:28:07;12.25;;;7.60;;
1721;SDS011;858;53.190;8.596;2022-11-06T08:30:34;6.55;;;4.75;;
1721;SDS011;858;53.190;8.596;2022-11-06T08:33:01;9.43;;;4.50;;
1721;SDS011;858;53.190;8.596;2022-11-06T08:35:28;7.63;;;5.60;;
1721;SDS011;858;53.190;8.596;2022-11-06T08:37:56;6.50;;;3.60;;
1721;SDS011;858;53.190;8.596;2022-11-06T08:40:22;9.23;;;6.88;;
1721;SDS011;858;53.190;8.596;2022-11-06T08:42:51;6.60;;;4.30;;
1721;SDS011;858;53.190;8.596;2022-11-06T08:45:18;7.75;;;4.07;;
1721;SDS011;858;53.190;8.596;2022-11-06T08:47:46;16.13;;;5.83;;
1721;SDS011;858;53.190;8.596;2022-11-06T08:50:12;9.07;;;4.93;;
1721;SDS011;858;53.190;8.596;2022-11-06T08:52:39;7.80;;;4.50;;
1721;SDS011;858;53.190;8.596;2022-11-06T08:55:07;6.40;;;3.78;;
1721;SDS011;858;53.190;8.596;2022-11-06T08:57:35;7.63;;;4.63;;
1721;SDS011;858;53.190;8.596;2022-11-06T09:00:01;8.38;;;4.18;;
1721;SDS011;858;53.190;8.596;2022-11-06T09:02:28;7.65;;;4.60;;
1721;SDS011;858;53.190;8.596;2022-11-06T09:04:55;9.55;;;4.70;;
1721;SDS011;858;53.190;8.596;2022-11-06T09:07:22;5.82;;;4.18;;
1721;SDS011;858;53.190;8.596;2022-11-06T09:09:48;7.60;;;3.80;;
1721;SDS011;858;53.190;8.596;2022-11-06T09:12:16;8.02;;;4.00;;
1721;SDS011;858;53.190;8.596;2022-11-06T09:14:42;13.03;;;7.07;;
1721;SDS011;858;53.190;8.596;2022-11-06T09:17:11;6.40;;;4.70;;
1721;SDS011;858;53.190;8.596;2022-11-06T09:19:37;6.88;;;4.57;;
1721;SDS011;858;53.190;8.596;2022-11-06T09:22:03;7.72;;;3.75;;
1721;SDS011;858;53.190;8.596;2022-11-06T09:24:30;11.60;;;6.20;;
1721;SDS011;858;53.190;8.596;2022-11-06T09:26:56;6.00;;;3.60;;
1721;SDS011;858;53.190;8.596;2022-11-06T09:29:24;8.45;;;3.60;;
1721;SDS011;858;53.190;8.596;2022-11-06T09:31:50;7.20;;;3.53;;
1721;SDS011;858;53.190;8.596;2022-11-06T09:34:18;8.18;;;3.22;;
1721;SDS011;858;53.190;8.596;2022-11-06T09:36:44;7.20;;;3.67;;
1721;SDS011;858;53.190;8.596;2022-11-06T09:39:11;4.60;;;3.33;;
1721;SDS011;858;53.190;8.596;2022-11-06T09:41:40;14.65;;;10.18;;
1721;SDS011;858;53.190;8.596;2022-11-06T09:44:16;7.63;;;5.00;;
1721;SDS011;858;53.190;8.596;2022-11-06T09:46:46;7.25;;;3.40;;
1721;SDS011;858;53.190;8.596;2022-11-06T09:49:15;7.22;;;4.00;;
1721;SDS011;858;53.190;8.596;2022-11-06T09:51:45;8.73;;;4.53;;
1721;SDS011;858;53.190;8.596;2022-11-06T09:54:13;6.32;;;3.60;;
1721;SDS011;858;53.190;8.596;2022-11-06T09:56:41;8.50;;;3.35;;
1721;SDS011;858;53.190;8.596;2022-11-06T09:59:09;7.57;;;3.70;;
1721;SDS011;858;53.190;8.596;2022-11-06T10:01:41;6.25;;;3.03;;
1721;SDS011;858;53.190;8.596;2022-11-06T10:04:11;6.65;;;3.92;;
1721;SDS011;858;53.190;8.596;2022-11-06T10:06:41;6.07;;;3.40;;
1721;SDS011;858;53.190;8.596;2022-11-06T10:09:09;6.93;;;3.50;;
1721;SDS011;858;53.190;8.596;2022-11-06T10:11:44;4.37;;;3.27;;
1721;SDS011;858;53.190;8.596;2022-11-06T10:14:14;8.00;;;3.25;;
1721;SDS011;858;53.190;8.596;2022-11-06T10:16:49;5.75;;;2.80;;
1721;SDS011;858;53.190;8.596;2022-11-06T10:19:24;5.65;;;2.88;;
1721;SDS011;858;53.190;8.596;2022-11-06T10:21:52;5.30;;;2.83;;
1721;SDS011;858;53.190;8.596;2022-11-06T10:24:25;6.38;;;3.20;;
1721;SDS011;858;53.190;8.596;2022-11-06T10:26:56;6.00;;;2.92;;
1721;SDS011;858;53.190;8.596;2022-11-06T10:29:27;7.60;;;3.20;;
1721;SDS011;858;53.190;8.596;2022-11-06T10:31:58;4.78;;;2.72;;
1721;SDS011;858;53.190;8.596;2022-11-06T10:34:28;8.25;;;3.08;;
1721;SDS011;858;53.190;8.596;2022-11-06T10:36:58;6.57;;;2.60;;
1721;SDS011;858;53.190;8.596;2022-11-06T10:39:26;8.38;;;3.20;;
1721;SDS011;858;53.190;8.596;2022-11-06T10:41:55;7.88;;;2.80;;
1721;SDS011;858;53.190;8.596;2022-11-06T10:44:24;6.37;;;2.70;;
1721;SDS011;858;53.190;8.596;2022-11-06T10:46:54;9.98;;;5.20;;
1721;SDS011;858;53.190;8.596;2022-11-06T10:49:22;33.38;;;22.00;;
1721;SDS011;858;53.190;8.596;2022-11-06T10:52:01;7.10;;;3.17;;
1721;SDS011;858;53.190;8.596;2022-11-06T10:54:34;6.30;;;2.80;;
1721;SDS011;858;53.190;8.596;2022-11-06T10:57:10;4.13;;;2.45;;
1721;SDS011;858;53.190;8.596;2022-11-06T10:59:38;5.10;;;2.90;;
1721;SDS011;858;53.190;8.596;2022-11-06T11:02:06;7.90;;;2.80;;
1721;SDS011;858;53.190;8.596;2022-11-06T11:04:36;7.10;;;2.97;;
1721;SDS011;858;53.190;8.596;2022-11-06T11:07:09;6.55;;;2.95;;
1721;SDS011;858;53.190;8.596;2022-11-06T11:09:38;5.68;;;2.75;;
1721;SDS011;858;53.190;8.596;2022-11-06T11:12:07;4.28;;;2.25;;
1721;SDS011;858;53.190;8.596;2022-11-06T11:14:44;5.90;;;2.50;;
1721;SDS011;858;53.190;8.596;2022-11-06T11:17:17;6.88;;;2.80;;
1721;SDS011;858;53.190;8.596;2022-11-06T11:19:44;5.80;;;2.60;;
1721;SDS011;858;53.190;8.596;2022-11-06T11:22:18;5.80;;;2.45;;
1721;SDS011;858;53.190;8.596;2022-11-06T11:24:57;6.63;;;2.92;;
1721;SDS011;858;53.190;8.596;2022-11-06T11:27:24;7.40;;;2.50;;
1721;SDS011;858;53.190;8.596;2022-11-06T11:29:50;4.50;;;2.20;;
1721;SDS011;858;53.190;8.596;2022-11-06T11:32:17;7.60;;;2.83;;
1721;SDS011;858;53.190;8.596;2022-11-06T11:34:45;5.05;;;1.83;;
1721;SDS011;858;53.190;8.596;2022-11-06T11:37:22;5.28;;;2.60;;
1721;SDS011;858;53.190;8.596;2022-11-06T11:39:49;4.50;;;2.10;;
1721;SDS011;858;53.190;8.596;2022-11-06T11:42:20;6.97;;;2.80;;
1721;SDS011;858;53.190;8.596;2022-11-06T11:44:57;7.20;;;2.40;;
1721;SDS011;858;53.190;8.596;2022-11-06T11:47:31;7.50;;;3.00;;
1721;SDS011;858;53.190;8.596;2022-11-06T11:50:02;6.90;;;2.80;;
1721;SDS011;858;53.190;8.596;2022-11-06T11:52:43;3.40;;;2.25;;
1721;SDS011;858;53.190;8.596;2022-11-06T11:55:12;5.72;;;2.72;;
1721;SDS011;858;53.190;8.596;2022-11-06T11:57:40;6.18;;;2.30;;
1721;SDS011;858;53.190;8.596;2022-11-06T12:00:12;5.20;;;2.30;;
1721;SDS011;858;53.190;8.596;2022-11-06T12:02:41;7.28;;;2.90;;
1721;SDS011;858;53.190;8.596;2022-11-06T12:05:10;5.70;;;2.50;;
1721;SDS011;858;53.190;8.596;2022-11-06T12:07:39;3.88;;;2.45;;
1721;SDS011;858;53.190;8.596;2022-11-06T12:10:16;7.72;;;2.60;;
1721;SDS011;858;53.190;8.596;2022-11-06T12:12:46;4.30;;;2.40;;
1721;SDS011;858;53.190;8.596;2022-11-06T12:15:18;3.85;;;2.58;;
1721;SDS011;858;53.190;8.596;2022-11-06T12:17:46;3.58;;;2.10;;
1721;SDS011;858;53.190;8.596;2022-11-06T12:20:18;5.43;;;2.70;;
1721;SDS011;858;53.190;8.596;2022-11-06T12:22:48;5.57;;;2.30;;
1721;SDS011;858;53.190;8.596;2022-11-06T12:25:19;6.10;;;2.10;;
1721;SDS011;858;53.190;8.596;2022-11-06T12:27:49;6.18;;;2.42;;
1721;SDS011;858;53.190;8.596;2022-11-06T12:30:18;5.40;;;2.10;;
1721;SDS011;858;53.190;8.596;2022-11-06T12:32:52;3.90;;;2.30;;
1721;SDS011;858;53.190;8.596;2022-11-06T12:35:20;4.82;;;2.17;;
1721;SDS011;858;53.190;8.596;2022-11-06T12:37:54;5.00;;;2.30;;
1721;SDS011;858;53.190;8.596;2022-11-06T12:40:27;6.13;;;2.47;;
1721;SDS011;858;53.190;8.596;2022-11-06T12:42:59;7.22;;;2.63;;
1721;SDS011;858;53.190;8.596;2022-11-06T12:45:30;5.57;;;2.70;;
1721;SDS011;858;53.190;8.596;2022-11-06T12:47:59;2.60;;;1.92;;
1721;SDS011;858;53.190;8.596;2022-11-06T12:50:30;5.05;;;2.30;;
1721;SDS011;858;53.190;8.596;2022-11-06T12:53:08;3.50;;;2.20;;
1721;SDS011;858;53.190;8.596;2022-11-06T12:55:42;7.68;;;2.60;;
1721;SDS011;858;53.190;8.596;2022-11-06T12:58:23;4.13;;;2.10;;
1721;SDS011;858;53.190;8.596;2022-11-06T13:00:56;4.05;;;1.75;;
1721;SDS011;858;53.190;8.596;2022-11-06T13:03:29;3.67;;;2.10;;
1721;SDS011;858;53.190;8.596;2022-11-06T13:06:02;3.55;;;2.00;;
1721;SDS011;858;53.190;8.596;2022-11-06T13:08:32;5.20;;;2.10;;
1721;SDS011;858;53.190;8.596;2022-11-06T13:11:05;4.80;;;2.05;;
1721;SDS011;858;53.190;8.596;2022-11-06T13:13:41;4.35;;;1.90;;
1721;SDS011;858;53.190;8.596;2022-11-06T13:16:12;7.45;;;2.05;;
1721;SDS011;858;53.190;8.596;2022-11-06T13:18:43;6.32;;;2.50;;
1721;SDS011;858;53.190;8.596;2022-11-06T13:21:14;5.05;;;2.10;;
1721;SDS011;858;53.190;8.596;2022-11-06T13:23:43;3.65;;;1.83;;
1721;SDS011;858;53.190;8.596;2022-11-06T13:26:14;3.60;;;2.00;;
1721;SDS011;858;53.190;8.596;2022-11-06T13:28:42;3.50;;;2.17;;
1721;SDS011;858;53.190;8.596;2022-11-06T13:31:10;3.33;;;2.10;;
1721;SDS011;858;53.190;8.596;2022-11-06T13:33:38;6.10;;;2.30;;
1721;SDS011;858;53.190;8.596;2022-11-06T13:36:06;5.55;;;2.70;;
1721;SDS011;858;53.190;8.596;2022-11-06T13:38:33;4.63;;;2.20;;
1721;SDS011;858;53.190;8.596;2022-11-06T13:41:01;3.95;;;2.10;;
1721;SDS011;858;53.190;8.596;2022-11-06T13:43:36;7.63;;;2.78;;
1721;SDS011;858;53.190;8.596;2022-11-06T13:46:05;7.88;;;2.20;;
1721;SDS011;858;53.190;8.596;2022-11-06T13:48:37;5.88;;;2.50;;
1721;SDS011;858;53.190;8.596;2022-11-06T13:51:08;4.57;;;2.05;;
1721;SDS011;858;53.190;8.596;2022-11-06T13:53:37;5.88;;;2.60;;
1721;SDS011;858;53.190;8.596;2022-11-06T13:56:10;3.58;;;2.20;;
1721;SDS011;858;53.190;8.596;2022-11-06T14:01:26;5.13;;;2.80;;
1721;SDS011;858;53.190;8.596;2022-11-06T14:06:36;5.97;;;2.80;;
1721;SDS011;858;53.190;8.596;2022-11-06T14:09:04;2.90;;;2.30;;
1721;SDS011;858;53.190;8.596;2022-11-06T14:11:31;4.55;;;2.40;;
1721;SDS011;858;53.190;8.596;2022-11-06T14:13:59;5.45;;;2.65;;
1721;SDS011;858;53.190;8.596;2022-11-06T14:16:29;5.07;;;2.27;;
1721;SDS011;858;53.190;8.596;2022-11-06T14:18:56;4.80;;;1.90;;
1721;SDS011;858;53.190;8.596;2022-11-06T14:24:13;4.95;;;2.50;;
1721;SDS011;858;53.190;8.596;2022-11-06T14:26:41;3.00;;;1.92;;
1721;SDS011;858;53.190;8.596;2022-11-06T14:32:01;4.88;;;2.60;;
1721;SDS011;858;53.190;8.596;2022-11-06T14:34:28;4.80;;;2.10;;
1721;SDS011;858;53.190;8.596;2022-11-06T14:36:55;6.40;;;2.40;;
1721;SDS011;858;53.190;8.596;2022-11-06T14:42:16;4.03;;;2.10;;
1721;SDS011;858;53.190;8.596;2022-11-06T14:44:45;4.80;;;1.92;;
1721;SDS011;858;53.190;8.596;2022-11-06T14:47:26;6.72;;;2.35;;
1721;SDS011;858;53.190;8.596;2022-11-06T14:49:55;6.37;;;2.80;;
1721;SDS011;858;53.190;8.596;2022-11-06T14:52:23;4.45;;;2.20;;
1721;SDS011;858;53.190;8.596;2022-11-06T14:54:53;3.33;;;2.20;;
1721;SDS011;858;53.190;8.596;2022-11-06T15:00:06;4.43;;;2.20;;
1721;SDS011;858;53.190;8.596;2022-11-06T15:02:34;5.80;;;2.30;;
1721;SDS011;858;53.190;8.596;2022-11-06T15:05:02;4.60;;;2.60;;
1721;SDS011;858;53.190;8.596;2022-11-06T15:07:33;4.53;;;2.43;;
1721;SDS011;858;53.190;8.596;2022-11-06T15:10:00;4.80;;;2.50;;
1721;SDS011;858;53.190;8.596;2022-11-06T15:15:14;6.38;;;3.22;;
1721;SDS011;858;53.190;8.596;2022-11-06T15:17:43;6.93;;;2.70;;
1721;SDS011;858;53.190;8.596;2022-11-06T15:20:14;6.15;;;3.00;;
1721;SDS011;858;53.190;8.596;2022-11-06T15:22:45;2.85;;;2.30;;
1721;SDS011;858;53.190;8.596;2022-11-06T15:25:19;5.57;;;3.03;;
1721;SDS011;858;53.190;8.596;2022-11-06T15:27:47;5.88;;;2.33;;
1721;SDS011;858;53.190;8.596;2022-11-06T15:30:17;3.87;;;2.30;;
1721;SDS011;858;53.190;8.596;2022-11-06T15:32:46;4.25;;;2.50;;
1721;SDS011;858;53.190;8.596;2022-11-06T15:35:14;5.63;;;3.22;;
1721;SDS011;858;53.190;8.596;2022-11-06T15:37:42;5.80;;;2.70;;
1721;SDS011;858;53.190;8.596;2022-11-06T15:40:20;5.00;;;2.90;;
1721;SDS011;858;53.190;8.596;2022-11-06T15:42:47;6.03;;;2.55;;
1721;SDS011;858;53.190;8.596;2022-11-06T15:45:18;3.50;;;2.80;;
1721;SDS011;858;53.190;8.596;2022-11-06T15:47:52;6.05;;;3.00;;
1721;SDS011;858;53.190;8.596;2022-11-06T15:50:20;5.20;;;3.10;;
1721;SDS011;858;53.190;8.596;2022-11-06T15:52:47;4.57;;;2.60;;
1721;SDS011;858;53.190;8.596;2022-11-06T15:55:14;5.45;;;2.90;;
1721;SDS011;858;53.190;8.596;2022-11-06T15:57:41;3.40;;;2.70;;